sensor_id;sensor_type;location;lat;lon;timestamp;P1;durP1;ratioP1;P2;durP2;ratioP2
79365;SDS011;68833;53.160;17.920;2023-07-29T00:01:42;0.60;;;0.40;;
79365;SDS011;68833;53.160;17.920;2023-07-29T00:04:10;0.70;;;0.50;;
79365;SDS011;68833;53.160;17.920;2023-07-29T00:06:37;0.60;;;0.60;;
79365;SDS011;68833;53.160;17.920;2023-07-29T00:09:04;0.70;;;0.50;;
79365;SDS011;68833;53.160;17.920;2023-07-29T00:11:31;0.60;;;0.50;;
79365;SDS011;68833;53.160;17.920;2023-07-29T00:14:01;0.60;;;0.50;;
79365;SDS011;68833;53.160;17.920;2023-07-29T00:16:28;0.60;;;0.40;;
79365;SDS011;68833;53.160;17.920;2023-07-29T00:18:55;0.60;;;0.50;;
79365;SDS011;68833;53.160;17.920;2023-07-29T00:21:22;0.40;;;0.40;;
79365;SDS011;68833;53.160;17.920;2023-07-29T00:23:49;0.40;;;0.30;;
79365;SDS011;68833;53.160;17.920;2023-07-29T00:26:16;0.40;;;0.40;;
79365;SDS011;68833;53.160;17.920;2023-07-29T00:28:44;0.60;;;0.40;;
79365;SDS011;68833;53.160;17.920;2023-07-29T00:31:11;0.50;;;0.50;;
79365;SDS011;68833;53.160;17.920;2023-07-29T00:33:38;0.50;;;0.40;;
79365;SDS011;68833;53.160;17.920;2023-07-29T00:36:06;0.50;;;0.50;;
79365;SDS011;68833;53.160;17.920;2023-07-29T00:38:34;0.40;;;0.40;;
79365;SDS011;68833;53.160;17.920;2023-07-29T00:41:04;0.40;;;0.40;;
79365;SDS011;68833;53.160;17.920;2023-07-29T00:43:32;0.70;;;0.50;;
79365;SDS011;68833;53.160;17.920;2023-07-29T00:45:59;0.60;;;0.50;;
79365;SDS011;68833;53.160;17.920;2023-07-29T00:48:26;0.60;;;0.60;;
79365;SDS011;68833;53.160;17.920;2023-07-29T00:50:54;0.40;;;0.40;;
79365;SDS011;68833;53.160;17.920;2023-07-29T00:53:21;0.50;;;0.40;;
79365;SDS011;68833;53.160;17.920;2023-07-29T00:55:50;0.50;;;0.50;;
79365;SDS011;68833;53.160;17.920;2023-07-29T00:58:17;0.50;;;0.40;;
79365;SDS011;68833;53.160;17.920;2023-07-29T01:00:45;0.50;;;0.50;;
79365;SDS011;68833;53.160;17.920;2023-07-29T01:03:13;0.50;;;0.50;;
79365;SDS011;68833;53.160;17.920;2023-07-29T01:06:00;0.80;;;0.60;;
79365;SDS011;68833;53.160;17.920;2023-07-29T01:08:46;0.60;;;0.40;;
79365;SDS011;68833;53.160;17.920;2023-07-29T01:11:35;0.80;;;0.50;;
79365;SDS011;68833;53.160;17.920;2023-07-29T01:14:19;0.60;;;0.50;;
79365;SDS011;68833;53.160;17.920;2023-07-29T01:16:55;1.00;;;0.60;;
79365;SDS011;68833;53.160;17.920;2023-07-29T01:19:47;0.50;;;0.50;;
79365;SDS011;68833;53.160;17.920;2023-07-29T01:22:14;0.60;;;0.50;;
79365;SDS011;68833;53.160;17.920;2023-07-29T01:24:43;0.70;;;0.60;;
79365;SDS011;68833;53.160;17.920;2023-07-29T01:27:10;0.70;;;0.50;;
79365;SDS011;68833;53.160;17.920;2023-07-29T01:29:37;0.60;;;0.60;;
79365;SDS011;68833;53.160;17.920;2023-07-29T01:32:14;0.50;;;0.50;;
79365;SDS011;68833;53.160;17.920;2023-07-29T01:37:47;0.70;;;0.60;;
79365;SDS011;68833;53.160;17.920;2023-07-29T01:40:16;0.50;;;0.50;;
79365;SDS011;68833;53.160;17.920;2023-07-29T01:42:46;0.70;;;0.70;;
79365;SDS011;68833;53.160;17.920;2023-07-29T01:45:13;1.00;;;0.50;;
79365;SDS011;68833;53.160;17.920;2023-07-29T01:47:40;0.60;;;0.60;;
79365;SDS011;68833;53.160;17.920;2023-07-29T01:50:08;1.90;;;0.70;;
79365;SDS011;68833;53.160;17.920;2023-07-29T01:52:36;0.70;;;0.60;;
79365;SDS011;68833;53.160;17.920;2023-07-29T01:55:03;0.70;;;0.60;;
79365;SDS011;68833;53.160;17.920;2023-07-29T01:57:30;0.60;;;0.60;;
79365;SDS011;68833;53.160;17.920;2023-07-29T01:59:58;0.40;;;0.40;;
79365;SDS011;68833;53.160;17.920;2023-07-29T02:02:25;0.60;;;0.60;;
79365;SDS011;68833;53.160;17.920;2023-07-29T02:04:55;0.80;;;0.70;;
79365;SDS011;68833;53.160;17.920;2023-07-29T02:07:23;0.80;;;0.70;;
79365;SDS011;68833;53.160;17.920;2023-07-29T02:09:53;0.90;;;0.60;;
79365;SDS011;68833;53.160;17.920;2023-07-29T02:12:20;0.60;;;0.40;;
79365;SDS011;68833;53.160;17.920;2023-07-29T02:14:47;0.40;;;0.40;;
79365;SDS011;68833;53.160;17.920;2023-07-29T02:17:15;0.70;;;0.50;;
79365;SDS011;68833;53.160;17.920;2023-07-29T02:19:42;0.80;;;0.80;;
79365;SDS011;68833;53.160;17.920;2023-07-29T02:22:12;0.60;;;0.60;;
79365;SDS011;68833;53.160;17.920;2023-07-29T02:24:41;0.70;;;0.60;;
79365;SDS011;68833;53.160;17.920;2023-07-29T02:27:08;0.80;;;0.60;;
79365;SDS011;68833;53.160;17.920;2023-07-29T02:29:36;0.70;;;0.70;;
79365;SDS011;68833;53.160;17.920;2023-07-29T02:32:03;0.80;;;0.60;;
79365;SDS011;68833;53.160;17.920;2023-07-29T02:34:30;0.70;;;0.70;;
79365;SDS011;68833;53.160;17.920;2023-07-29T02:36:57;1.10;;;0.70;;
79365;SDS011;68833;53.160;17.920;2023-07-29T02:39:24;0.70;;;0.50;;
79365;SDS011;68833;53.160;17.920;2023-07-29T02:41:52;0.50;;;0.50;;
79365;SDS011;68833;53.160;17.920;2023-07-29T02:44:19;0.70;;;0.60;;
79365;SDS011;68833;53.160;17.920;2023-07-29T02:46:47;0.70;;;0.50;;
79365;SDS011;68833;53.160;17.920;2023-07-29T02:49:14;0.90;;;0.70;;
79365;SDS011;68833;53.160;17.920;2023-07-29T02:51:41;0.90;;;0.50;;
79365;SDS011;68833;53.160;17.920;2023-07-29T02:54:08;0.80;;;0.60;;
79365;SDS011;68833;53.160;17.920;2023-07-29T02:56:35;0.60;;;0.60;;
79365;SDS011;68833;53.160;17.920;2023-07-29T02:59:02;0.60;;;0.60;;
79365;SDS011;68833;53.160;17.920;2023-07-29T03:01:30;1.10;;;0.60;;
79365;SDS011;68833;53.160;17.920;2023-07-29T03:03:57;0.90;;;0.60;;
79365;SDS011;68833;53.160;17.920;2023-07-29T03:06:28;0.60;;;0.50;;
79365;SDS011;68833;53.160;17.920;2023-07-29T03:08:55;0.60;;;0.50;;
79365;SDS011;68833;53.160;17.920;2023-07-29T03:11:22;0.70;;;0.60;;
79365;SDS011;68833;53.160;17.920;2023-07-29T03:13:49;1.10;;;0.60;;
79365;SDS011;68833;53.160;17.920;2023-07-29T03:16:17;0.60;;;0.60;;
79365;SDS011;68833;53.160;17.920;2023-07-29T03:18:49;0.60;;;0.60;;
79365;SDS011;68833;53.160;17.920;2023-07-29T03:21:17;0.60;;;0.60;;
79365;SDS011;68833;53.160;17.920;2023-07-29T03:23:44;0.60;;;0.50;;
79365;SDS011;68833;53.160;17.920;2023-07-29T03:26:11;0.90;;;0.60;;
79365;SDS011;68833;53.160;17.920;2023-07-29T03:28:39;0.60;;;0.50;;
79365;SDS011;68833;53.160;17.920;2023-07-29T03:31:08;0.90;;;0.70;;
79365;SDS011;68833;53.160;17.920;2023-07-29T03:33:35;0.70;;;0.60;;
79365;SDS011;68833;53.160;17.920;2023-07-29T03:36:02;1.00;;;0.60;;
79365;SDS011;68833;53.160;17.920;2023-07-29T03:38:30;3.50;;;3.20;;
79365;SDS011;68833;53.160;17.920;2023-07-29T03:40:58;0.80;;;0.70;;
79365;SDS011;68833;53.160;17.920;2023-07-29T03:43:25;0.70;;;0.60;;
79365;SDS011;68833;53.160;17.920;2023-07-29T03:45:54;0.80;;;0.80;;
79365;SDS011;68833;53.160;17.920;2023-07-29T03:48:22;0.50;;;0.50;;
79365;SDS011;68833;53.160;17.920;2023-07-29T03:50:49;0.70;;;0.60;;
79365;SDS011;68833;53.160;17.920;2023-07-29T03:53:16;0.90;;;0.70;;
79365;SDS011;68833;53.160;17.920;2023-07-29T03:55:43;0.60;;;0.60;;
79365;SDS011;68833;53.160;17.920;2023-07-29T03:58:11;0.80;;;0.70;;
79365;SDS011;68833;53.160;17.920;2023-07-29T04:00:39;1.20;;;1.10;;
79365;SDS011;68833;53.160;17.920;2023-07-29T04:03:08;1.80;;;1.70;;
79365;SDS011;68833;53.160;17.920;2023-07-29T04:05:36;1.50;;;1.40;;
79365;SDS011;68833;53.160;17.920;2023-07-29T04:08:03;0.70;;;0.60;;
79365;SDS011;68833;53.160;17.920;2023-07-29T04:10:30;0.70;;;0.60;;
79365;SDS011;68833;53.160;17.920;2023-07-29T04:12:58;0.60;;;0.40;;
79365;SDS011;68833;53.160;17.920;2023-07-29T04:15:25;0.70;;;0.70;;
79365;SDS011;68833;53.160;17.920;2023-07-29T04:17:52;0.70;;;0.70;;
79365;SDS011;68833;53.160;17.920;2023-07-29T04:20:20;0.80;;;0.70;;
79365;SDS011;68833;53.160;17.920;2023-07-29T04:22:47;0.70;;;0.60;;
79365;SDS011;68833;53.160;17.920;2023-07-29T04:25:14;0.80;;;0.70;;
79365;SDS011;68833;53.160;17.920;2023-07-29T04:27:41;0.80;;;0.70;;
79365;SDS011;68833;53.160;17.920;2023-07-29T04:30:08;0.90;;;0.80;;
79365;SDS011;68833;53.160;17.920;2023-07-29T04:32:35;1.10;;;1.00;;
79365;SDS011;68833;53.160;17.920;2023-07-29T04:35:02;0.80;;;0.70;;
79365;SDS011;68833;53.160;17.920;2023-07-29T04:37:30;0.70;;;0.70;;
79365;SDS011;68833;53.160;17.920;2023-07-29T04:39:57;0.80;;;0.70;;
79365;SDS011;68833;53.160;17.920;2023-07-29T04:42:24;1.00;;;0.90;;
79365;SDS011;68833;53.160;17.920;2023-07-29T04:44:51;1.00;;;0.90;;
79365;SDS011;68833;53.160;17.920;2023-07-29T04:47:18;1.00;;;0.90;;
79365;SDS011;68833;53.160;17.920;2023-07-29T04:49:45;0.90;;;0.80;;
79365;SDS011;68833;53.160;17.920;2023-07-29T04:52:12;1.50;;;1.00;;
79365;SDS011;68833;53.160;17.920;2023-07-29T04:54:40;1.30;;;1.20;;
79365;SDS011;68833;53.160;17.920;2023-07-29T04:57:07;1.20;;;1.10;;
79365;SDS011;68833;53.160;17.920;2023-07-29T04:59:34;1.40;;;1.30;;
79365;SDS011;68833;53.160;17.920;2023-07-29T05:02:01;1.30;;;1.20;;
79365;SDS011;68833;53.160;17.920;2023-07-29T05:04:29;1.30;;;1.20;;
79365;SDS011;68833;53.160;17.920;2023-07-29T05:06:55;1.20;;;1.10;;
79365;SDS011;68833;53.160;17.920;2023-07-29T05:09:23;1.30;;;1.20;;
79365;SDS011;68833;53.160;17.920;2023-07-29T05:11:50;1.00;;;0.90;;
79365;SDS011;68833;53.160;17.920;2023-07-29T05:14:17;1.40;;;1.20;;
79365;SDS011;68833;53.160;17.920;2023-07-29T05:16:45;1.40;;;1.20;;
79365;SDS011;68833;53.160;17.920;2023-07-29T05:19:12;1.40;;;1.30;;
79365;SDS011;68833;53.160;17.920;2023-07-29T05:21:39;1.20;;;1.00;;
79365;SDS011;68833;53.160;17.920;2023-07-29T05:24:07;1.40;;;1.30;;
79365;SDS011;68833;53.160;17.920;2023-07-29T05:26:34;1.10;;;1.00;;
79365;SDS011;68833;53.160;17.920;2023-07-29T05:29:01;1.30;;;1.10;;
79365;SDS011;68833;53.160;17.920;2023-07-29T05:31:28;1.00;;;0.90;;
79365;SDS011;68833;53.160;17.920;2023-07-29T05:33:55;1.40;;;1.30;;
79365;SDS011;68833;53.160;17.920;2023-07-29T05:36:22;1.20;;;1.00;;
79365;SDS011;68833;53.160;17.920;2023-07-29T05:38:50;1.10;;;1.00;;
79365;SDS011;68833;53.160;17.920;2023-07-29T05:41:18;1.50;;;1.40;;
79365;SDS011;68833;53.160;17.920;2023-07-29T05:43:45;1.10;;;1.00;;
79365;SDS011;68833;53.160;17.920;2023-07-29T05:46:13;1.10;;;1.00;;
79365;SDS011;68833;53.160;17.920;2023-07-29T05:48:41;1.00;;;0.90;;
79365;SDS011;68833;53.160;17.920;2023-07-29T05:51:09;1.10;;;1.00;;
79365;SDS011;68833;53.160;17.920;2023-07-29T05:53:37;1.20;;;1.10;;
79365;SDS011;68833;53.160;17.920;2023-07-29T05:56:04;0.90;;;0.80;;
79365;SDS011;68833;53.160;17.920;2023-07-29T05:58:31;0.70;;;0.70;;
79365;SDS011;68833;53.160;17.920;2023-07-29T06:00:58;1.10;;;1.00;;
79365;SDS011;68833;53.160;17.920;2023-07-29T06:03:25;0.90;;;0.80;;
79365;SDS011;68833;53.160;17.920;2023-07-29T06:05:53;0.90;;;0.80;;
79365;SDS011;68833;53.160;17.920;2023-07-29T06:08:21;0.80;;;0.60;;
79365;SDS011;68833;53.160;17.920;2023-07-29T06:10:48;0.70;;;0.60;;
79365;SDS011;68833;53.160;17.920;2023-07-29T06:13:15;1.40;;;0.70;;
79365;SDS011;68833;53.160;17.920;2023-07-29T06:15:42;0.70;;;0.70;;
79365;SDS011;68833;53.160;17.920;2023-07-29T06:18:09;0.80;;;0.80;;
79365;SDS011;68833;53.160;17.920;2023-07-29T06:20:36;0.90;;;0.80;;
79365;SDS011;68833;53.160;17.920;2023-07-29T06:23:04;0.90;;;0.70;;
79365;SDS011;68833;53.160;17.920;2023-07-29T06:25:31;0.70;;;0.60;;
79365;SDS011;68833;53.160;17.920;2023-07-29T06:27:57;0.60;;;0.50;;
79365;SDS011;68833;53.160;17.920;2023-07-29T06:30:24;0.80;;;0.60;;
79365;SDS011;68833;53.160;17.920;2023-07-29T06:32:52;0.50;;;0.50;;
79365;SDS011;68833;53.160;17.920;2023-07-29T06:35:19;0.80;;;0.80;;
79365;SDS011;68833;53.160;17.920;2023-07-29T06:37:46;0.70;;;0.50;;
79365;SDS011;68833;53.160;17.920;2023-07-29T06:40:13;0.70;;;0.60;;
79365;SDS011;68833;53.160;17.920;2023-07-29T06:42:40;0.90;;;0.70;;
79365;SDS011;68833;53.160;17.920;2023-07-29T06:45:08;0.60;;;0.60;;
79365;SDS011;68833;53.160;17.920;2023-07-29T06:47:35;0.80;;;0.80;;
79365;SDS011;68833;53.160;17.920;2023-07-29T06:50:03;0.60;;;0.60;;
79365;SDS011;68833;53.160;17.920;2023-07-29T06:52:31;0.60;;;0.60;;
79365;SDS011;68833;53.160;17.920;2023-07-29T06:54:58;0.40;;;0.40;;
79365;SDS011;68833;53.160;17.920;2023-07-29T06:57:25;0.40;;;0.40;;
79365;SDS011;68833;53.160;17.920;2023-07-29T06:59:54;0.30;;;0.30;;
79365;SDS011;68833;53.160;17.920;2023-07-29T07:02:22;0.40;;;0.30;;
79365;SDS011;68833;53.160;17.920;2023-07-29T07:04:49;0.80;;;0.40;;
79365;SDS011;68833;53.160;17.920;2023-07-29T07:07:16;0.40;;;0.40;;
79365;SDS011;68833;53.160;17.920;2023-07-29T07:09:43;0.60;;;0.40;;
79365;SDS011;68833;53.160;17.920;2023-07-29T07:12:11;0.50;;;0.40;;
79365;SDS011;68833;53.160;17.920;2023-07-29T07:14:38;0.30;;;0.30;;
79365;SDS011;68833;53.160;17.920;2023-07-29T07:17:05;0.40;;;0.40;;
79365;SDS011;68833;53.160;17.920;2023-07-29T07:19:32;0.30;;;0.30;;
79365;SDS011;68833;53.160;17.920;2023-07-29T07:21:59;0.40;;;0.40;;
79365;SDS011;68833;53.160;17.920;2023-07-29T07:24:26;0.40;;;0.40;;
79365;SDS011;68833;53.160;17.920;2023-07-29T07:26:53;0.40;;;0.30;;
79365;SDS011;68833;53.160;17.920;2023-07-29T07:29:20;0.40;;;0.40;;
79365;SDS011;68833;53.160;17.920;2023-07-29T07:31:50;2.00;;;1.80;;
79365;SDS011;68833;53.160;17.920;2023-07-29T07:34:19;0.30;;;0.30;;
79365;SDS011;68833;53.160;17.920;2023-07-29T07:36:47;0.40;;;0.40;;
79365;SDS011;68833;53.160;17.920;2023-07-29T07:39:14;0.30;;;0.30;;
79365;SDS011;68833;53.160;17.920;2023-07-29T07:41:42;0.60;;;0.30;;
79365;SDS011;68833;53.160;17.920;2023-07-29T07:44:09;0.30;;;0.30;;
79365;SDS011;68833;53.160;17.920;2023-07-29T07:46:36;0.30;;;0.30;;
79365;SDS011;68833;53.160;17.920;2023-07-29T07:49:03;1.00;;;0.40;;
79365;SDS011;68833;53.160;17.920;2023-07-29T07:51:29;0.20;;;0.20;;
79365;SDS011;68833;53.160;17.920;2023-07-29T07:53:56;0.40;;;0.40;;
79365;SDS011;68833;53.160;17.920;2023-07-29T07:56:23;0.40;;;0.30;;
79365;SDS011;68833;53.160;17.920;2023-07-29T07:58:50;0.30;;;0.30;;
79365;SDS011;68833;53.160;17.920;2023-07-29T08:01:17;0.50;;;0.30;;
79365;SDS011;68833;53.160;17.920;2023-07-29T08:03:44;0.30;;;0.30;;
79365;SDS011;68833;53.160;17.920;2023-07-29T08:06:12;0.20;;;0.20;;
79365;SDS011;68833;53.160;17.920;2023-07-29T08:08:38;0.50;;;0.40;;
79365;SDS011;68833;53.160;17.920;2023-07-29T08:11:05;0.30;;;0.30;;
79365;SDS011;68833;53.160;17.920;2023-07-29T08:13:32;0.50;;;0.50;;
79365;SDS011;68833;53.160;17.920;2023-07-29T08:15:59;0.30;;;0.30;;
79365;SDS011;68833;53.160;17.920;2023-07-29T08:18:26;0.30;;;0.30;;
79365;SDS011;68833;53.160;17.920;2023-07-29T08:23:21;0.40;;;0.40;;
79365;SDS011;68833;53.160;17.920;2023-07-29T08:25:55;0.20;;;0.20;;
79365;SDS011;68833;53.160;17.920;2023-07-29T08:28:30;1.30;;;0.40;;
79365;SDS011;68833;53.160;17.920;2023-07-29T08:30:59;1.00;;;0.30;;
79365;SDS011;68833;53.160;17.920;2023-07-29T08:33:27;0.30;;;0.30;;
79365;SDS011;68833;53.160;17.920;2023-07-29T08:35:54;0.40;;;0.30;;
79365;SDS011;68833;53.160;17.920;2023-07-29T08:38:21;0.30;;;0.30;;
79365;SDS011;68833;53.160;17.920;2023-07-29T08:43:38;0.20;;;0.20;;
79365;SDS011;68833;53.160;17.920;2023-07-29T08:46:10;0.40;;;0.40;;
79365;SDS011;68833;53.160;17.920;2023-07-29T08:48:42;1.20;;;1.00;;
79365;SDS011;68833;53.160;17.920;2023-07-29T08:51:10;0.20;;;0.20;;
79365;SDS011;68833;53.160;17.920;2023-07-29T08:53:39;0.40;;;0.30;;
79365;SDS011;68833;53.160;17.920;2023-07-29T08:56:06;0.40;;;0.30;;
79365;SDS011;68833;53.160;17.920;2023-07-29T08:58:34;0.30;;;0.30;;
79365;SDS011;68833;53.160;17.920;2023-07-29T09:01:04;0.30;;;0.30;;
79365;SDS011;68833;53.160;17.920;2023-07-29T09:03:33;0.30;;;0.30;;
79365;SDS011;68833;53.160;17.920;2023-07-29T09:06:00;0.30;;;0.30;;
79365;SDS011;68833;53.160;17.920;2023-07-29T09:08:29;0.30;;;0.30;;
79365;SDS011;68833;53.160;17.920;2023-07-29T09:10:56;0.40;;;0.30;;
79365;SDS011;68833;53.160;17.920;2023-07-29T09:13:24;0.50;;;0.30;;
79365;SDS011;68833;53.160;17.920;2023-07-29T09:15:55;0.30;;;0.30;;
79365;SDS011;68833;53.160;17.920;2023-07-29T09:18:25;0.50;;;0.30;;
79365;SDS011;68833;53.160;17.920;2023-07-29T09:20:53;0.40;;;0.30;;
79365;SDS011;68833;53.160;17.920;2023-07-29T09:23:21;0.60;;;0.20;;
79365;SDS011;68833;53.160;17.920;2023-07-29T09:25:49;0.40;;;0.30;;
79365;SDS011;68833;53.160;17.920;2023-07-29T09:28:17;0.40;;;0.30;;
79365;SDS011;68833;53.160;17.920;2023-07-29T09:30:46;0.50;;;0.20;;
79365;SDS011;68833;53.160;17.920;2023-07-29T09:33:13;0.20;;;0.20;;
79365;SDS011;68833;53.160;17.920;2023-07-29T09:35:41;0.20;;;0.20;;
79365;SDS011;68833;53.160;17.920;2023-07-29T09:38:08;0.70;;;0.30;;
79365;SDS011;68833;53.160;17.920;2023-07-29T09:40:41;0.20;;;0.20;;
79365;SDS011;68833;53.160;17.920;2023-07-29T09:43:09;0.20;;;0.20;;
79365;SDS011;68833;53.160;17.920;2023-07-29T09:45:38;0.30;;;0.20;;
79365;SDS011;68833;53.160;17.920;2023-07-29T09:48:06;0.30;;;0.30;;
79365;SDS011;68833;53.160;17.920;2023-07-29T09:50:36;0.40;;;0.30;;
79365;SDS011;68833;53.160;17.920;2023-07-29T09:53:04;0.20;;;0.20;;
79365;SDS011;68833;53.160;17.920;2023-07-29T09:55:33;0.20;;;0.20;;
79365;SDS011;68833;53.160;17.920;2023-07-29T09:58:02;0.60;;;0.30;;
79365;SDS011;68833;53.160;17.920;2023-07-29T10:03:57;0.20;;;0.20;;
79365;SDS011;68833;53.160;17.920;2023-07-29T10:06:26;0.10;;;0.10;;
79365;SDS011;68833;53.160;17.920;2023-07-29T10:08:53;0.60;;;0.20;;
79365;SDS011;68833;53.160;17.920;2023-07-29T10:11:19;0.20;;;0.20;;
79365;SDS011;68833;53.160;17.920;2023-07-29T10:13:47;0.40;;;0.30;;
79365;SDS011;68833;53.160;17.920;2023-07-29T10:16:14;0.20;;;0.20;;
79365;SDS011;68833;53.160;17.920;2023-07-29T10:18:41;0.20;;;0.20;;
79365;SDS011;68833;53.160;17.920;2023-07-29T10:21:09;0.20;;;0.20;;
79365;SDS011;68833;53.160;17.920;2023-07-29T10:23:40;0.20;;;0.20;;
79365;SDS011;68833;53.160;17.920;2023-07-29T10:26:10;0.10;;;0.10;;
79365;SDS011;68833;53.160;17.920;2023-07-29T10:28:40;0.10;;;0.10;;
79365;SDS011;68833;53.160;17.920;2023-07-29T10:31:07;0.60;;;0.10;;
79365;SDS011;68833;53.160;17.920;2023-07-29T10:33:34;0.40;;;0.20;;
79365;SDS011;68833;53.160;17.920;2023-07-29T10:36:01;0.20;;;0.20;;
79365;SDS011;68833;53.160;17.920;2023-07-29T10:38:31;0.60;;;0.20;;
79365;SDS011;68833;53.160;17.920;2023-07-29T10:40:59;0.20;;;0.10;;
79365;SDS011;68833;53.160;17.920;2023-07-29T10:43:27;0.30;;;0.20;;
79365;SDS011;68833;53.160;17.920;2023-07-29T10:45:57;0.10;;;0.10;;
79365;SDS011;68833;53.160;17.920;2023-07-29T10:48:43;0.30;;;0.30;;
79365;SDS011;68833;53.160;17.920;2023-07-29T10:51:23;0.20;;;0.20;;
79365;SDS011;68833;53.160;17.920;2023-07-29T10:54:01;0.80;;;0.80;;
79365;SDS011;68833;53.160;17.920;2023-07-29T10:56:29;0.40;;;0.30;;
79365;SDS011;68833;53.160;17.920;2023-07-29T11:01:58;0.20;;;0.20;;
79365;SDS011;68833;53.160;17.920;2023-07-29T11:04:31;0.20;;;0.20;;
79365;SDS011;68833;53.160;17.920;2023-07-29T11:09:40;0.10;;;0.10;;
79365;SDS011;68833;53.160;17.920;2023-07-29T11:15:16;0.30;;;0.20;;
79365;SDS011;68833;53.160;17.920;2023-07-29T11:20:27;0.20;;;0.20;;
79365;SDS011;68833;53.160;17.920;2023-07-29T11:22:55;0.50;;;0.20;;
79365;SDS011;68833;53.160;17.920;2023-07-29T11:25:24;0.20;;;0.20;;
79365;SDS011;68833;53.160;17.920;2023-07-29T11:30:20;0.90;;;0.20;;
79365;SDS011;68833;53.160;17.920;2023-07-29T11:32:46;0.10;;;0.10;;
79365;SDS011;68833;53.160;17.920;2023-07-29T11:35:17;0.50;;;0.20;;
79365;SDS011;68833;53.160;17.920;2023-07-29T11:37:45;0.10;;;0.10;;
79365;SDS011;68833;53.160;17.920;2023-07-29T11:40:14;0.30;;;0.30;;
79365;SDS011;68833;53.160;17.920;2023-07-29T11:42:44;0.20;;;0.10;;
79365;SDS011;68833;53.160;17.920;2023-07-29T11:45:15;0.20;;;0.20;;
79365;SDS011;68833;53.160;17.920;2023-07-29T11:47:45;0.20;;;0.20;;
79365;SDS011;68833;53.160;17.920;2023-07-29T11:50:21;0.10;;;0.10;;
79365;SDS011;68833;53.160;17.920;2023-07-29T11:52:47;0.20;;;0.20;;
79365;SDS011;68833;53.160;17.920;2023-07-29T11:55:14;0.10;;;0.10;;
79365;SDS011;68833;53.160;17.920;2023-07-29T11:57:41;0.10;;;0.10;;
79365;SDS011;68833;53.160;17.920;2023-07-29T12:00:09;0.40;;;0.20;;
79365;SDS011;68833;53.160;17.920;2023-07-29T12:02:38;0.10;;;0.10;;
79365;SDS011;68833;53.160;17.920;2023-07-29T12:05:06;0.40;;;0.10;;
79365;SDS011;68833;53.160;17.920;2023-07-29T12:07:34;0.20;;;0.20;;
79365;SDS011;68833;53.160;17.920;2023-07-29T12:10:02;0.10;;;0.10;;
79365;SDS011;68833;53.160;17.920;2023-07-29T12:12:29;0.10;;;0.10;;
79365;SDS011;68833;53.160;17.920;2023-07-29T12:14:56;0.10;;;0.10;;
79365;SDS011;68833;53.160;17.920;2023-07-29T12:17:22;0.40;;;0.30;;
79365;SDS011;68833;53.160;17.920;2023-07-29T12:19:49;0.20;;;0.20;;
79365;SDS011;68833;53.160;17.920;2023-07-29T12:22:18;0.70;;;0.10;;
79365;SDS011;68833;53.160;17.920;2023-07-29T12:24:45;0.50;;;0.10;;
79365;SDS011;68833;53.160;17.920;2023-07-29T12:27:14;0.80;;;0.80;;
79365;SDS011;68833;53.160;17.920;2023-07-29T12:29:47;0.20;;;0.20;;
79365;SDS011;68833;53.160;17.920;2023-07-29T12:32:18;0.20;;;0.20;;
79365;SDS011;68833;53.160;17.920;2023-07-29T12:34:44;0.10;;;0.10;;
79365;SDS011;68833;53.160;17.920;2023-07-29T12:37:10;0.40;;;0.40;;
79365;SDS011;68833;53.160;17.920;2023-07-29T12:39:40;0.10;;;0.10;;
79365;SDS011;68833;53.160;17.920;2023-07-29T12:42:10;0.20;;;0.20;;
79365;SDS011;68833;53.160;17.920;2023-07-29T12:44:37;0.50;;;0.20;;
79365;SDS011;68833;53.160;17.920;2023-07-29T12:47:05;0.20;;;0.10;;
79365;SDS011;68833;53.160;17.920;2023-07-29T12:49:36;0.20;;;0.20;;
79365;SDS011;68833;53.160;17.920;2023-07-29T12:52:03;0.90;;;0.60;;
79365;SDS011;68833;53.160;17.920;2023-07-29T12:54:30;0.20;;;0.20;;
79365;SDS011;68833;53.160;17.920;2023-07-29T12:56:59;0.40;;;0.40;;
79365;SDS011;68833;53.160;17.920;2023-07-29T12:59:25;0.30;;;0.30;;
79365;SDS011;68833;53.160;17.920;2023-07-29T13:01:52;0.20;;;0.20;;
79365;SDS011;68833;53.160;17.920;2023-07-29T13:04:19;0.60;;;0.30;;
79365;SDS011;68833;53.160;17.920;2023-07-29T13:06:45;0.20;;;0.20;;
79365;SDS011;68833;53.160;17.920;2023-07-29T13:11:40;0.50;;;0.20;;
79365;SDS011;68833;53.160;17.920;2023-07-29T13:14:07;0.90;;;0.20;;
79365;SDS011;68833;53.160;17.920;2023-07-29T13:16:34;0.20;;;0.10;;
79365;SDS011;68833;53.160;17.920;2023-07-29T13:19:00;0.20;;;0.20;;
79365;SDS011;68833;53.160;17.920;2023-07-29T13:21:27;0.20;;;0.20;;
79365;SDS011;68833;53.160;17.920;2023-07-29T13:23:53;0.20;;;0.20;;
79365;SDS011;68833;53.160;17.920;2023-07-29T13:26:20;0.30;;;0.20;;
79365;SDS011;68833;53.160;17.920;2023-07-29T13:28:48;0.20;;;0.20;;
79365;SDS011;68833;53.160;17.920;2023-07-29T13:31:16;0.20;;;0.20;;
79365;SDS011;68833;53.160;17.920;2023-07-29T13:33:42;0.20;;;0.20;;
79365;SDS011;68833;53.160;17.920;2023-07-29T13:36:08;0.70;;;0.20;;
79365;SDS011;68833;53.160;17.920;2023-07-29T13:38:35;0.40;;;0.30;;
79365;SDS011;68833;53.160;17.920;2023-07-29T13:41:01;0.20;;;0.20;;
79365;SDS011;68833;53.160;17.920;2023-07-29T13:43:28;0.20;;;0.20;;
79365;SDS011;68833;53.160;17.920;2023-07-29T13:45:54;0.30;;;0.30;;
79365;SDS011;68833;53.160;17.920;2023-07-29T13:48:21;0.40;;;0.30;;
79365;SDS011;68833;53.160;17.920;2023-07-29T13:50:48;0.30;;;0.20;;
79365;SDS011;68833;53.160;17.920;2023-07-29T13:53:15;0.20;;;0.20;;
79365;SDS011;68833;53.160;17.920;2023-07-29T13:55:41;0.20;;;0.20;;
79365;SDS011;68833;53.160;17.920;2023-07-29T13:58:08;0.20;;;0.20;;
79365;SDS011;68833;53.160;17.920;2023-07-29T14:00:34;0.20;;;0.20;;
79365;SDS011;68833;53.160;17.920;2023-07-29T14:03:01;0.20;;;0.10;;
79365;SDS011;68833;53.160;17.920;2023-07-29T14:05:27;0.20;;;0.20;;
79365;SDS011;68833;53.160;17.920;2023-07-29T14:07:53;1.30;;;1.20;;
79365;SDS011;68833;53.160;17.920;2023-07-29T14:10:20;0.30;;;0.30;;
79365;SDS011;68833;53.160;17.920;2023-07-29T14:12:46;0.70;;;0.50;;
79365;SDS011;68833;53.160;17.920;2023-07-29T14:15:12;0.30;;;0.20;;
79365;SDS011;68833;53.160;17.920;2023-07-29T14:17:38;0.30;;;0.30;;
79365;SDS011;68833;53.160;17.920;2023-07-29T14:20:05;0.40;;;0.30;;
79365;SDS011;68833;53.160;17.920;2023-07-29T14:22:32;0.70;;;0.40;;
79365;SDS011;68833;53.160;17.920;2023-07-29T14:24:58;0.80;;;0.40;;
79365;SDS011;68833;53.160;17.920;2023-07-29T14:27:24;0.20;;;0.20;;
79365;SDS011;68833;53.160;17.920;2023-07-29T14:29:50;0.20;;;0.20;;
79365;SDS011;68833;53.160;17.920;2023-07-29T14:32:17;0.40;;;0.40;;
79365;SDS011;68833;53.160;17.920;2023-07-29T14:34:43;0.30;;;0.20;;
79365;SDS011;68833;53.160;17.920;2023-07-29T14:37:09;0.20;;;0.20;;
79365;SDS011;68833;53.160;17.920;2023-07-29T14:39:36;0.50;;;0.20;;
79365;SDS011;68833;53.160;17.920;2023-07-29T14:42:02;0.30;;;0.30;;
79365;SDS011;68833;53.160;17.920;2023-07-29T14:44:29;0.20;;;0.20;;
79365;SDS011;68833;53.160;17.920;2023-07-29T14:46:55;0.60;;;0.20;;
79365;SDS011;68833;53.160;17.920;2023-07-29T14:49:22;0.20;;;0.20;;
79365;SDS011;68833;53.160;17.920;2023-07-29T14:51:48;0.50;;;0.30;;
79365;SDS011;68833;53.160;17.920;2023-07-29T14:54:15;0.50;;;0.50;;
79365;SDS011;68833;53.160;17.920;2023-07-29T14:56:41;1.10;;;0.40;;
79365;SDS011;68833;53.160;17.920;2023-07-29T14:59:08;0.20;;;0.20;;
79365;SDS011;68833;53.160;17.920;2023-07-29T15:01:34;0.80;;;0.60;;
79365;SDS011;68833;53.160;17.920;2023-07-29T15:04:00;0.40;;;0.40;;
79365;SDS011;68833;53.160;17.920;2023-07-29T15:06:26;0.30;;;0.30;;